sensor_id;sensor_type;location;lat;lon;timestamp;pressure;altitude;pressure_sealevel;temperature;humidity
55424;BME280;41294;42.666;23.350;2023-03-16T00:00:13;94153.94;;;4.52;99.20
55424;BME280;41294;42.666;23.350;2023-03-16T00:02:40;94169.63;;;4.61;99.76
55424;BME280;41294;42.666;23.350;2023-03-16T00:05:07;94167.88;;;4.58;100.00
55424;BME280;41294;42.666;23.350;2023-03-16T00:07:34;94170.38;;;4.61;98.89
55424;BME280;41294;42.666;23.350;2023-03-16T00:09:59;94172.44;;;4.66;98.56
55424;BME280;41294;42.666;23.350;2023-03-16T00:12:25;94156.72;;;4.57;97.53
55424;BME280;41294;42.666;23.350;2023-03-16T00:14:58;94167.56;;;4.56;97.95
55424;BME280;41294;42.666;23.350;2023-03-16T00:17:24;94166.09;;;4.55;98.18
55424;BME280;41294;42.666;23.350;2023-03-16T00:19:54;94179.56;;;4.53;98.03
55424;BME280;41294;42.666;23.350;2023-03-16T00:22:28;94178.19;;;4.49;98.33
55424;BME280;41294;42.666;23.350;2023-03-16T00:24:55;94180.91;;;4.58;98.33
55424;BME280;41294;42.666;23.350;2023-03-16T00:27:22;94176.84;;;4.44;98.58
55424;BME280;41294;42.666;23.350;2023-03-16T00:29:49;94178.00;;;4.56;98.32
55424;BME280;41294;42.666;23.350;2023-03-16T00:32:29;94180.47;;;4.47;98.35
55424;BME280;41294;42.666;23.350;2023-03-16T00:34:56;94187.78;;;4.52;97.74
55424;BME280;41294;42.666;23.350;2023-03-16T00:37:23;94176.84;;;4.44;98.27
55424;BME280;41294;42.666;23.350;2023-03-16T00:39:49;94187.88;;;4.36;98.69
55424;BME280;41294;42.666;23.350;2023-03-16T00:42:16;94189.13;;;4.44;98.17
55424;BME280;41294;42.666;23.350;2023-03-16T00:44:42;94189.22;;;4.28;98.64
55424;BME280;41294;42.666;23.350;2023-03-16T00:47:09;94194.94;;;4.23;99.46
55424;BME280;41294;42.666;23.350;2023-03-16T00:49:39;94193.81;;;4.24;99.75
55424;BME280;41294;42.666;23.350;2023-03-16T00:52:07;94188.81;;;4.29;99.97
55424;BME280;41294;42.666;23.350;2023-03-16T00:54:33;94193.69;;;4.27;100.00
55424;BME280;41294;42.666;23.350;2023-03-16T00:56:59;94190.88;;;4.22;99.83
55424;BME280;41294;42.666;23.350;2023-03-16T00:59:25;94191.69;;;4.19;100.00
55424;BME280;41294;42.666;23.350;2023-03-16T01:01:54;94196.50;;;4.20;100.00
55424;BME280;41294;42.666;23.350;2023-03-16T01:04:20;94189.75;;;4.23;100.00
55424;BME280;41294;42.666;23.350;2023-03-16T01:06:46;94185.13;;;4.14;100.00
55424;BME280;41294;42.666;23.350;2023-03-16T01:09:11;94193.69;;;4.15;99.94
55424;BME280;41294;42.666;23.350;2023-03-16T01:11:39;94201.28;;;4.09;100.00
55424;BME280;41294;42.666;23.350;2023-03-16T01:14:08;94195.53;;;4.14;100.00
55424;BME280;41294;42.666;23.350;2023-03-16T01:16:35;94190.84;;;4.09;100.00
55424;BME280;41294;42.666;23.350;2023-03-16T01:19:00;94197.22;;;4.08;99.52
55424;BME280;41294;42.666;23.350;2023-03-16T01:21:26;94203.72;;;3.88;100.00
55424;BME280;41294;42.666;23.350;2023-03-16T01:23:52;94201.34;;;3.94;100.00
55424;BME280;41294;42.666;23.350;2023-03-16T01:26:19;94196.66;;;4.01;100.00
55424;BME280;41294;42.666;23.350;2023-03-16T01:28:45;94202.31;;;4.12;100.00
55424;BME280;41294;42.666;23.350;2023-03-16T01:31:15;94199.69;;;4.00;100.00
55424;BME280;41294;42.666;23.350;2023-03-16T01:33:41;94205.13;;;4.05;100.00
55424;BME280;41294;42.666;23.350;2023-03-16T01:36:16;94208.16;;;4.16;100.00
55424;BME280;41294;42.666;23.350;2023-03-16T01:38:42;94204.59;;;4.10;100.00
55424;BME280;41294;42.666;23.350;2023-03-16T01:41:07;94208.34;;;4.09;100.00
55424;BME280;41294;42.666;23.350;2023-03-16T01:43:34;94204.16;;;3.99;100.00
55424;BME280;41294;42.666;23.350;2023-03-16T01:51:35;94219.44;;;3.85;100.00
55424;BME280;41294;42.666;23.350;2023-03-16T01:55:06;94220.47;;;3.87;100.00
55424;BME280;41294;42.666;23.350;2023-03-16T01:57:07;94218.88;;;3.77;100.00
55424;BME280;41294;42.666;23.350;2023-03-16T02:02:43;94238.69;;;3.87;100.00
55424;BME280;41294;42.666;23.350;2023-03-16T02:05:14;94232.97;;;3.92;100.00
55424;BME280;41294;42.666;23.350;2023-03-16T02:07:44;94243.22;;;3.99;100.00
55424;BME280;41294;42.666;23.350;2023-03-16T02:10:13;94234.84;;;3.92;99.48
55424;BME280;41294;42.666;23.350;2023-03-16T02:12:41;94236.78;;;4.04;99.47
55424;BME280;41294;42.666;23.350;2023-03-16T02:15:08;94239.31;;;3.91;99.49
55424;BME280;41294;42.666;23.350;2023-03-16T02:17:34;94242.94;;;3.81;99.95
55424;BME280;41294;42.666;23.350;2023-03-16T02:22:53;94241.78;;;3.82;100.00
55424;BME280;41294;42.666;23.350;2023-03-16T02:25:23;94251.38;;;3.85;100.00
55424;BME280;41294;42.666;23.350;2023-03-16T02:30:29;94265.34;;;3.91;100.00
55424;BME280;41294;42.666;23.350;2023-03-16T02:32:57;94263.81;;;3.78;100.00
55424;BME280;41294;42.666;23.350;2023-03-16T02:35:22;94263.56;;;3.88;100.00
55424;BME280;41294;42.666;23.350;2023-03-16T02:37:48;94267.00;;;3.85;100.00
55424;BME280;41294;42.666;23.350;2023-03-16T02:40:25;94263.44;;;3.79;100.00
55424;BME280;41294;42.666;23.350;2023-03-16T02:42:59;94271.72;;;3.74;100.00
55424;BME280;41294;42.666;23.350;2023-03-16T02:45:30;94265.34;;;3.91;100.00
55424;BME280;41294;42.666;23.350;2023-03-16T02:48:00;94275.59;;;3.82;100.00
55424;BME280;41294;42.666;23.350;2023-03-16T02:50:28;94266.38;;;3.81;100.00
55424;BME280;41294;42.666;23.350;2023-03-16T02:52:53;94273.38;;;3.68;100.00
55424;BME280;41294;42.666;23.350;2023-03-16T02:55:19;94273.94;;;3.76;100.00
55424;BME280;41294;42.666;23.350;2023-03-16T02:57:46;94279.84;;;3.76;100.00
55424;BME280;41294;42.666;23.350;2023-03-16T03:00:11;94283.06;;;3.68;100.00
55424;BME280;41294;42.666;23.350;2023-03-16T03:02:42;94275.81;;;3.59;100.00
55424;BME280;41294;42.666;23.350;2023-03-16T03:05:08;94279.41;;;3.49;100.00
55424;BME280;41294;42.666;23.350;2023-03-16T03:07:34;94277.28;;;3.60;100.00
55424;BME280;41294;42.666;23.350;2023-03-16T03:09:59;94284.28;;;3.63;100.00
55424;BME280;41294;42.666;23.350;2023-03-16T03:12:28;94286.47;;;3.65;100.00
55424;BME280;41294;42.666;23.350;2023-03-16T03:14:53;94293.25;;;3.46;100.00
55424;BME280;41294;42.666;23.350;2023-03-16T03:17:21;94291.78;;;3.45;100.00
55424;BME280;41294;42.666;23.350;2023-03-16T03:19:54;94287.19;;;3.49;100.00
55424;BME280;41294;42.666;23.350;2023-03-16T03:22:19;94297.94;;;3.51;100.00
55424;BME280;41294;42.666;23.350;2023-03-16T03:24:45;94294.84;;;3.40;100.00
55424;BME280;41294;42.666;23.350;2023-03-16T03:27:10;94295.81;;;3.30;100.00
55424;BME280;41294;42.666;23.350;2023-03-16T03:29:36;94304.44;;;3.43;100.00
55424;BME280;41294;42.666;23.350;2023-03-16T03:32:03;94303.63;;;3.46;100.00
55424;BME280;41294;42.666;23.350;2023-03-16T03:34:29;94307.22;;;3.36;100.00
55424;BME280;41294;42.666;23.350;2023-03-16T03:36:56;94305.25;;;3.40;100.00
55424;BME280;41294;42.666;23.350;2023-03-16T03:39:22;94314.09;;;3.43;100.00
55424;BME280;41294;42.666;23.350;2023-03-16T03:41:48;94315.16;;;3.14;100.00
55424;BME280;41294;42.666;23.350;2023-03-16T03:44:14;94312.38;;;3.21;100.00
55424;BME280;41294;42.666;23.350;2023-03-16T03:46:40;94310.78;;;3.11;100.00
55424;BME280;41294;42.666;23.350;2023-03-16T03:49:08;94311.56;;;3.08;100.00
55424;BME280;41294;42.666;23.350;2023-03-16T03:51:33;94327.50;;;3.10;100.00
55424;BME280;41294;42.666;23.350;2023-03-16T03:53:59;94335.13;;;3.01;100.00
55424;BME280;41294;42.666;23.350;2023-03-16T03:56:25;94337.06;;;3.13;100.00
55424;BME280;41294;42.666;23.350;2023-03-16T03:58:51;94344.16;;;3.12;100.00
55424;BME280;41294;42.666;23.350;2023-03-16T04:01:16;94341.81;;;3.18;100.00
55424;BME280;41294;42.666;23.350;2023-03-16T04:03:43;94347.22;;;3.07;100.00
55424;BME280;41294;42.666;23.350;2023-03-16T04:06:16;94346.41;;;3.10;100.00
55424;BME280;41294;42.666;23.350;2023-03-16T04:08:45;94352.53;;;3.20;100.00
55424;BME280;41294;42.666;23.350;2023-03-16T04:11:11;94347.34;;;3.20;100.00
55424;BME280;41294;42.666;23.350;2023-03-16T04:16:13;94344.78;;;3.16;100.00
55424;BME280;41294;42.666;23.350;2023-03-16T04:18:43;94352.03;;;3.09;100.00
55424;BME280;41294;42.666;23.350;2023-03-16T04:21:16;94345.03;;;3.22;100.00
55424;BME280;41294;42.666;23.350;2023-03-16T04:23:43;94351.53;;;3.14;100.00
55424;BME280;41294;42.666;23.350;2023-03-16T04:26:12;94357.41;;;3.18;100.00
55424;BME280;41294;42.666;23.350;2023-03-16T04:28:38;94355.84;;;3.20;100.00
55424;BME280;41294;42.666;23.350;2023-03-16T04:31:05;94356.34;;;3.15;100.00
55424;BME280;41294;42.666;23.350;2023-03-16T04:33:32;94359.66;;;3.16;100.00
55424;BME280;41294;42.666;23.350;2023-03-16T04:35:58;94366.50;;;3.25;100.00
55424;BME280;41294;42.666;23.350;2023-03-16T04:38:25;94366.78;;;3.31;100.00
55424;BME280;41294;42.666;23.350;2023-03-16T04:40:50;94376.13;;;3.28;100.00
55424;BME280;41294;42.666;23.350;2023-03-16T04:43:16;94376.91;;;3.25;100.00
55424;BME280;41294;42.666;23.350;2023-03-16T04:45:42;94376.66;;;3.20;100.00
55424;BME280;41294;42.666;23.350;2023-03-16T04:48:08;94377.72;;;3.22;100.00
55424;BME280;41294;42.666;23.350;2023-03-16T04:50:34;94384.53;;;3.17;100.00
55424;BME280;41294;42.666;23.350;2023-03-16T04:53:00;94386.66;;;3.22;100.00
55424;BME280;41294;42.666;23.350;2023-03-16T04:55:25;94397.78;;;3.22;100.00
55424;BME280;41294;42.666;23.350;2023-03-16T04:57:51;94391.66;;;3.13;100.00
55424;BME280;41294;42.666;23.350;2023-03-16T05:00:18;94393.47;;;3.16;100.00
55424;BME280;41294;42.666;23.350;2023-03-16T05:02:48;94395.72;;;3.14;100.00
55424;BME280;41294;42.666;23.350;2023-03-16T05:05:14;94405.41;;;3.13;100.00
55424;BME280;41294;42.666;23.350;2023-03-16T05:07:40;94405.56;;;3.06;100.00
55424;BME280;41294;42.666;23.350;2023-03-16T05:10:09;94399.53;;;3.09;100.00
55424;BME280;41294;42.666;23.350;2023-03-16T05:12:35;94402.41;;;3.15;100.00
55424;BME280;41294;42.666;23.350;2023-03-16T05:15:02;94394.53;;;3.18;100.00
55424;BME280;41294;42.666;23.350;2023-03-16T05:17:27;94411.59;;;3.19;100.00
55424;BME280;41294;42.666;23.350;2023-03-16T05:19:52;94414.97;;;3.16;100.00
55424;BME280;41294;42.666;23.350;2023-03-16T05:22:18;94411.44;;;3.26;100.00
55424;BME280;41294;42.666;23.350;2023-03-16T05:24:44;94421.03;;;3.29;100.00
55424;BME280;41294;42.666;23.350;2023-03-16T05:27:09;94430.25;;;3.33;100.00
55424;BME280;41294;42.666;23.350;2023-03-16T05:29:35;94425.66;;;3.22;100.00
55424;BME280;41294;42.666;23.350;2023-03-16T05:32:00;94435.06;;;3.16;100.00
55424;BME280;41294;42.666;23.350;2023-03-16T05:34:26;94428.50;;;3.27;100.00
55424;BME280;41294;42.666;23.350;2023-03-16T05:36:51;94425.19;;;3.26;100.00
55424;BME280;41294;42.666;23.350;2023-03-16T05:39:17;94440.78;;;3.26;100.00
55424;BME280;41294;42.666;23.350;2023-03-16T05:41:43;94446.00;;;3.26;99.88
55424;BME280;41294;42.666;23.350;2023-03-16T05:44:09;94438.66;;;3.22;100.00
55424;BME280;41294;42.666;23.350;2023-03-16T05:46:34;94449.56;;;3.32;100.00
55424;BME280;41294;42.666;23.350;2023-03-16T05:49:00;94445.63;;;3.44;100.00
55424;BME280;41294;42.666;23.350;2023-03-16T05:51:26;94446.38;;;3.25;100.00
55424;BME280;41294;42.666;23.350;2023-03-16T05:53:52;94451.25;;;3.23;100.00
55424;BME280;41294;42.666;23.350;2023-03-16T05:56:24;94460.13;;;3.25;100.00
55424;BME280;41294;42.666;23.350;2023-03-16T05:58:54;94456.72;;;3.28;100.00
55424;BME280;41294;42.666;23.350;2023-03-16T06:01:20;94465.72;;;3.24;100.00
55424;BME280;41294;42.666;23.350;2023-03-16T06:03:47;94465.13;;;3.17;100.00
55424;BME280;41294;42.666;23.350;2023-03-16T06:06:15;94465.47;;;3.19;100.00
55424;BME280;41294;42.666;23.350;2023-03-16T06:08:41;94475.72;;;3.25;100.00
55424;BME280;41294;42.666;23.350;2023-03-16T06:11:06;94471.31;;;3.22;100.00
55424;BME280;41294;42.666;23.350;2023-03-16T06:13:33;94475.13;;;3.37;100.00
55424;BME280;41294;42.666;23.350;2023-03-16T06:15:59;94475.44;;;3.39;100.00
55424;BME280;41294;42.666;23.350;2023-03-16T06:18:25;94477.72;;;3.37;100.00
55424;BME280;41294;42.666;23.350;2023-03-16T06:20:54;94480.09;;;3.48;100.00
55424;BME280;41294;42.666;23.350;2023-03-16T06:23:19;94485.56;;;3.53;100.00
55424;BME280;41294;42.666;23.350;2023-03-16T06:25:46;94484.81;;;3.53;100.00
55424;BME280;41294;42.666;23.350;2023-03-16T06:28:12;94492.34;;;3.47;99.37
55424;BME280;41294;42.666;23.350;2023-03-16T06:30:38;94485.91;;;3.55;99.33
55424;BME280;41294;42.666;23.350;2023-03-16T06:33:03;94495.50;;;3.74;98.61
55424;BME280;41294;42.666;23.350;2023-03-16T06:35:29;94499.66;;;3.72;96.52
55424;BME280;41294;42.666;23.350;2023-03-16T06:37:54;94507.41;;;3.75;96.64
55424;BME280;41294;42.666;23.350;2023-03-16T06:40:21;94513.28;;;3.79;96.86
55424;BME280;41294;42.666;23.350;2023-03-16T06:42:47;94522.22;;;3.78;96.40
55424;BME280;41294;42.666;23.350;2023-03-16T06:45:12;94518.31;;;3.86;96.55
55424;BME280;41294;42.666;23.350;2023-03-16T06:47:37;94531.66;;;3.88;97.03
55424;BME280;41294;42.666;23.350;2023-03-16T06:50:04;94529.78;;;3.89;97.45
55424;BME280;41294;42.666;23.350;2023-03-16T06:52:29;94526.81;;;3.71;95.84
55424;BME280;41294;42.666;23.350;2023-03-16T06:54:55;94539.94;;;3.83;96.10
55424;BME280;41294;42.666;23.350;2023-03-16T06:57:22;94536.16;;;3.68;94.18
55424;BME280;41294;42.666;23.350;2023-03-16T06:59:48;94536.88;;;3.88;93.88
55424;BME280;41294;42.666;23.350;2023-03-16T07:02:16;94542.72;;;3.92;93.52
55424;BME280;41294;42.666;23.350;2023-03-16T07:04:44;94551.22;;;3.96;93.49
55424;BME280;41294;42.666;23.350;2023-03-16T07:07:10;94538.03;;;4.03;93.67
55424;BME280;41294;42.666;23.350;2023-03-16T07:09:36;94555.28;;;3.97;93.46
55424;BME280;41294;42.666;23.350;2023-03-16T07:12:02;94557.06;;;4.00;92.93
55424;BME280;41294;42.666;23.350;2023-03-16T07:14:27;94560.66;;;4.06;92.04
55424;BME280;41294;42.666;23.350;2023-03-16T07:16:53;94568.94;;;4.01;92.90
55424;BME280;41294;42.666;23.350;2023-03-16T07:19:19;94557.25;;;4.09;93.53
55424;BME280;41294;42.666;23.350;2023-03-16T07:21:44;94559.63;;;4.19;93.01
55424;BME280;41294;42.666;23.350;2023-03-16T07:24:10;94560.75;;;4.18;94.19
55424;BME280;41294;42.666;23.350;2023-03-16T07:26:37;94564.44;;;4.21;93.81
55424;BME280;41294;42.666;23.350;2023-03-16T07:29:03;94573.59;;;4.09;94.29
55424;BME280;41294;42.666;23.350;2023-03-16T07:31:32;94580.47;;;4.19;93.65
55424;BME280;41294;42.666;23.350;2023-03-16T07:33:57;94576.47;;;4.15;94.35
55424;BME280;41294;42.666;23.350;2023-03-16T07:36:24;94576.13;;;4.13;95.29
55424;BME280;41294;42.666;23.350;2023-03-16T07:38:49;94578.41;;;4.11;94.72
55424;BME280;41294;42.666;23.350;2023-03-16T07:41:16;94574.75;;;4.08;93.22
55424;BME280;41294;42.666;23.350;2023-03-16T07:43:41;94580.78;;;4.21;92.98
55424;BME280;41294;42.666;23.350;2023-03-16T07:46:09;94584.13;;;4.22;93.25
55424;BME280;41294;42.666;23.350;2023-03-16T07:48:39;94586.03;;;4.53;92.40
55424;BME280;41294;42.666;23.350;2023-03-16T07:51:04;94574.81;;;4.56;91.57
55424;BME280;41294;42.666;23.350;2023-03-16T07:53:30;94584.47;;;4.72;91.14
55424;BME280;41294;42.666;23.350;2023-03-16T07:55:56;94589.69;;;4.87;90.36
55424;BME280;41294;42.666;23.350;2023-03-16T07:58:21;94589.28;;;4.89;89.41
55424;BME280;41294;42.666;23.350;2023-03-16T08:00:47;94592.22;;;4.91;89.31
55424;BME280;41294;42.666;23.350;2023-03-16T08:03:13;94590.00;;;4.89;89.38
55424;BME280;41294;42.666;23.350;2023-03-16T08:05:38;94597.97;;;4.98;89.68
55424;BME280;41294;42.666;23.350;2023-03-16T08:08:04;94583.03;;;4.87;89.24
55424;BME280;41294;42.666;23.350;2023-03-16T08:10:29;94588.03;;;5.09;87.06
55424;BME280;41294;42.666;23.350;2023-03-16T08:12:55;94597.50;;;5.03;87.23
55424;BME280;41294;42.666;23.350;2023-03-16T08:15:21;94600.94;;;4.85;86.08
55424;BME280;41294;42.666;23.350;2023-03-16T08:17:46;94603.34;;;5.07;85.97
55424;BME280;41294;42.666;23.350;2023-03-16T08:20:13;94607.53;;;5.05;86.64
55424;BME280;41294;42.666;23.350;2023-03-16T08:22:40;94610.84;;;5.21;86.92
55424;BME280;41294;42.666;23.350;2023-03-16T08:25:07;94614.03;;;5.41;86.19
55424;BME280;41294;42.666;23.350;2023-03-16T08:27:35;94620.91;;;5.35;86.68
55424;BME280;41294;42.666;23.350;2023-03-16T08:30:07;94620.50;;;5.37;87.36
55424;BME280;41294;42.666;23.350;2023-03-16T08:32:35;94626.47;;;5.37;87.25
55424;BME280;41294;42.666;23.350;2023-03-16T08:35:01;94620.72;;;5.14;86.67
55424;BME280;41294;42.666;23.350;2023-03-16T08:37:27;94623.94;;;5.18;86.11
55424;BME280;41294;42.666;23.350;2023-03-16T08:39:53;94621.16;;;5.41;86.45
55424;BME280;41294;42.666;23.350;2023-03-16T08:42:19;94620.41;;;5.40;85.04
55424;BME280;41294;42.666;23.350;2023-03-16T08:44:45;94619.06;;;5.64;86.26
55424;BME280;41294;42.666;23.350;2023-03-16T08:47:12;94625.81;;;5.62;84.53
55424;BME280;41294;42.666;23.350;2023-03-16T08:49:39;94632.41;;;5.66;84.70
55424;BME280;41294;42.666;23.350;2023-03-16T08:52:06;94633.31;;;5.47;84.59
55424;BME280;41294;42.666;23.350;2023-03-16T08:54:35;94635.97;;;5.60;83.60
55424;BME280;41294;42.666;23.350;2023-03-16T08:57:00;94627.81;;;5.58;83.13
55424;BME280;41294;42.666;23.350;2023-03-16T08:59:25;94645.97;;;5.61;83.09
55424;BME280;41294;42.666;23.350;2023-03-16T09:01:51;94641.38;;;5.53;82.80
55424;BME280;41294;42.666;23.350;2023-03-16T09:04:17;94631.13;;;5.58;83.30
55424;BME280;41294;42.666;23.350;2023-03-16T09:06:42;94635.59;;;5.45;83.57
55424;BME280;41294;42.666;23.350;2023-03-16T09:09:08;94637.19;;;5.55;82.73
55424;BME280;41294;42.666;23.350;2023-03-16T09:11:36;94646.34;;;5.75;82.66
55424;BME280;41294;42.666;23.350;2023-03-16T09:14:01;94644.84;;;5.62;82.98
55424;BME280;41294;42.666;23.350;2023-03-16T09:16:26;94648.53;;;5.49;81.14
55424;BME280;41294;42.666;23.350;2023-03-16T09:18:54;94646.53;;;5.24;80.97
55424;BME280;41294;42.666;23.350;2023-03-16T09:21:20;94648.16;;;5.34;82.20
55424;BME280;41294;42.666;23.350;2023-03-16T09:23:47;94650.34;;;5.36;82.26
55424;BME280;41294;42.666;23.350;2023-03-16T09:26:12;94654.69;;;5.26;83.54
55424;BME280;41294;42.666;23.350;2023-03-16T09:28:40;94651.72;;;5.40;83.62
55424;BME280;41294;42.666;23.350;2023-03-16T09:31:15;94653.09;;;5.45;83.03
55424;BME280;41294;42.666;23.350;2023-03-16T09:33:41;94646.59;;;5.53;83.42
55424;BME280;41294;42.666;23.350;2023-03-16T09:36:07;94653.66;;;5.52;84.04
55424;BME280;41294;42.666;23.350;2023-03-16T09:38:35;94659.06;;;5.45;82.19
55424;BME280;41294;42.666;23.350;2023-03-16T09:47:06;94655.66;;;5.32;82.85
55424;BME280;41294;42.666;23.350;2023-03-16T09:49:43;94648.16;;;5.34;80.39
55424;BME280;41294;42.666;23.350;2023-03-16T09:52:31;94661.72;;;5.29;80.30
55424;BME280;41294;42.666;23.350;2023-03-16T09:55:04;94657.03;;;5.37;79.89
55424;BME280;41294;42.666;23.350;2023-03-16T09:57:34;94661.78;;;5.26;80.94
55424;BME280;41294;42.666;23.350;2023-03-16T10:00:23;94664.38;;;5.42;81.83
55424;BME280;41294;42.666;23.350;2023-03-16T10:02:57;94667.75;;;5.55;81.76
55424;BME280;41294;42.666;23.350;2023-03-16T10:05:26;94663.00;;;5.37;83.41
55424;BME280;41294;42.666;23.350;2023-03-16T10:13:50;94666.28;;;5.54;83.83
55424;BME280;41294;42.666;23.350;2023-03-16T10:16:19;94670.50;;;5.35;84.72
55424;BME280;41294;42.666;23.350;2023-03-16T10:18:48;94673.06;;;5.51;83.47
55424;BME280;41294;42.666;23.350;2023-03-16T10:21:16;94662.44;;;5.30;82.88
55424;BME280;41294;42.666;23.350;2023-03-16T10:23:46;94664.38;;;5.42;82.43
55424;BME280;41294;42.666;23.350;2023-03-16T10:26:40;94659.88;;;5.42;81.53
55424;BME280;41294;42.666;23.350;2023-03-16T10:29:10;94660.22;;;5.44;82.33
55424;BME280;41294;42.666;23.350;2023-03-16T10:31:41;94667.28;;;5.60;82.03
55424;BME280;41294;42.666;23.350;2023-03-16T10:34:07;94668.81;;;5.73;81.31
55424;BME280;41294;42.666;23.350;2023-03-16T10:36:37;94661.44;;;5.84;80.44
55424;BME280;41294;42.666;23.350;2023-03-16T10:39:13;94666.69;;;5.68;80.15
55424;BME280;41294;42.666;23.350;2023-03-16T10:41:45;94663.91;;;5.59;81.03
55424;BME280;41294;42.666;23.350;2023-03-16T10:44:25;94673.03;;;5.67;82.26
55424;BME280;41294;42.666;23.350;2023-03-16T10:47:03;94661.63;;;5.61;82.92
55424;BME280;41294;42.666;23.350;2023-03-16T10:49:41;94667.72;;;5.70;81.05
55424;BME280;41294;42.666;23.350;2023-03-16T10:52:36;94672.75;;;5.65;81.38
55424;BME280;41294;42.666;23.350;2023-03-16T10:55:25;94672.41;;;5.63;81.05
55424;BME280;41294;42.666;23.350;2023-03-16T10:57:54;94671.88;;;5.40;81.54
55424;BME280;41294;42.666;23.350;2023-03-16T11:00:34;94669.41;;;5.49;81.29
55424;BME280;41294;42.666;23.350;2023-03-16T11:03:12;94670.94;;;5.62;80.90
55424;BME280;41294;42.666;23.350;2023-03-16T11:05:38;94665.97;;;5.68;79.31
55424;BME280;41294;42.666;23.350;2023-03-16T11:10:38;94673.38;;;5.97;78.03
55424;BME280;41294;42.666;23.350;2023-03-16T11:13:16;94674.56;;;5.96;77.58
55424;BME280;41294;42.666;23.350;2023-03-16T11:15:50;94676.88;;;6.07;77.44
55424;BME280;41294;42.666;23.350;2023-03-16T11:18:54;94671.38;;;5.89;77.50
55424;BME280;41294;42.666;23.350;2023-03-16T11:21:52;94672.88;;;5.74;77.13
55424;BME280;41294;42.666;23.350;2023-03-16T11:24:24;94671.66;;;5.78;76.98
55424;BME280;41294;42.666;23.350;2023-03-16T11:26:57;94678.28;;;5.83;77.42
55424;BME280;41294;42.666;23.350;2023-03-16T11:29:40;94672.06;;;5.77;77.30
55424;BME280;41294;42.666;23.350;2023-03-16T11:32:19;94678.41;;;5.76;76.94
55424;BME280;41294;42.666;23.350;2023-03-16T11:34:46;94675.47;;;5.90;75.95
55424;BME280;41294;42.666;23.350;2023-03-16T11:51:29;94673.22;;;6.04;75.80
55424;BME280;41294;42.666;23.350;2023-03-16T11:53:59;94673.19;;;5.92;75.78
55424;BME280;41294;42.666;23.350;2023-03-16T11:56:42;94674.59;;;5.80;76.04
55424;BME280;41294;42.666;23.350;2023-03-16T11:59:34;94683.38;;;5.70;76.47
55424;BME280;41294;42.666;23.350;2023-03-16T12:10:13;94683.56;;;5.79;76.25
55424;BME280;41294;42.666;23.350;2023-03-16T12:15:31;94690.25;;;5.80;76.52
55424;BME280;41294;42.666;23.350;2023-03-16T12:18:21;94698.75;;;5.84;76.67
55424;BME280;41294;42.666;23.350;2023-03-16T12:23:20;94691.94;;;5.87;76.78
55424;BME280;41294;42.666;23.350;2023-03-16T12:25:49;94702.25;;;5.78;76.74
55424;BME280;41294;42.666;23.350;2023-03-16T12:28:24;94705.22;;;5.48;77.92
55424;BME280;41294;42.666;23.350;2023-03-16T12:34:01;94698.13;;;5.49;78.30
55424;BME280;41294;42.666;23.350;2023-03-16T12:39:13;94708.34;;;5.27;80.18
55424;BME280;41294;42.666;23.350;2023-03-16T12:45:02;94710.28;;;5.23;79.45
55424;BME280;41294;42.666;23.350;2023-03-16T12:50:12;94721.63;;;5.17;79.91
55424;BME280;41294;42.666;23.350;2023-03-16T12:52:44;94733.03;;;5.23;80.06
55424;BME280;41294;42.666;23.350;2023-03-16T12:55:17;94724.63;;;5.15;80.39
55424;BME280;41294;42.666;23.350;2023-03-16T12:57:47;94735.41;;;5.17;82.33
55424;BME280;41294;42.666;23.350;2023-03-16T13:00:16;94729.22;;;5.11;83.67
55424;BME280;41294;42.666;23.350;2023-03-16T13:02:54;94732.28;;;5.06;84.56
55424;BME280;41294;42.666;23.350;2023-03-16T13:05:30;94736.13;;;5.02;85.79
55424;BME280;41294;42.666;23.350;2023-03-16T13:10:29;94735.94;;;4.93;87.14
55424;BME280;41294;42.666;23.350;2023-03-16T13:13:06;94748.09;;;4.99;88.00
55424;BME280;41294;42.666;23.350;2023-03-16T13:15:32;94738.09;;;4.98;89.01
55424;BME280;41294;42.666;23.350;2023-03-16T13:20:31;94748.44;;;5.01;89.16
55424;BME280;41294;42.666;23.350;2023-03-16T13:25:43;94745.97;;;4.94;90.16
55424;BME280;41294;42.666;23.350;2023-03-16T13:28:12;94751.91;;;4.95;89.66
55424;BME280;41294;42.666;23.350;2023-03-16T13:30:44;94740.91;;;4.87;90.60
55424;BME280;41294;42.666;23.350;2023-03-16T13:33:26;94752.97;;;4.97;90.99
55424;BME280;41294;42.666;23.350;2023-03-16T13:35:53;94760.72;;;5.01;91.04
55424;BME280;41294;42.666;23.350;2023-03-16T13:38:22;94753.91;;;5.07;90.71
55424;BME280;41294;42.666;23.350;2023-03-16T13:40:53;94748.09;;;5.15;90.27
55424;BME280;41294;42.666;23.350;2023-03-16T13:43:25;94759.84;;;5.07;90.24
55424;BME280;41294;42.666;23.350;2023-03-16T13:45:55;94766.44;;;5.12;89.57
55424;BME280;41294;42.666;23.350;2023-03-16T13:48:20;94755.06;;;5.22;88.52
55424;BME280;41294;42.666;23.350;2023-03-16T13:50:54;94772.09;;;5.26;88.57
55424;BME280;41294;42.666;23.350;2023-03-16T13:53:26;94758.00;;;5.24;89.05
55424;BME280;41294;42.666;23.350;2023-03-16T13:55:57;94773.06;;;5.16;88.98
55424;BME280;41294;42.666;23.350;2023-03-16T13:58:30;94766.97;;;5.23;87.32
55424;BME280;41294;42.666;23.350;2023-03-16T14:00:58;94773.41;;;5.34;87.62
55424;BME280;41294;42.666;23.350;2023-03-16T14:03:37;94770.44;;;5.16;86.95
55424;BME280;41294;42.666;23.350;2023-03-16T14:06:05;94773.84;;;5.13;87.33
55424;BME280;41294;42.666;23.350;2023-03-16T14:08:32;94782.28;;;5.37;87.69
55424;BME280;41294;42.666;23.350;2023-03-16T14:10:58;94784.72;;;5.28;86.08
55424;BME280;41294;42.666;23.350;2023-03-16T14:16:15;94780.09;;;5.19;87.75
55424;BME280;41294;42.666;23.350;2023-03-16T14:18:41;94791.13;;;5.07;86.21
55424;BME280;41294;42.666;23.350;2023-03-16T14:21:09;94789.19;;;4.95;87.05
55424;BME280;41294;42.666;23.350;2023-03-16T14:23:44;94801.53;;;4.91;86.75